Terminal Aerodrome Forecast
Issued by NWS

Current Version | Previous Version | Text Only | Print | Product List | Glossary On
Versions: 1 2 3 4 5 6 7 8 9 10 11 12 13 14 15 16 17 18 19 20 21 22 23 24 25 26 27 28 29
000
FTAK31 PAFA 131734
TAFATA
TAF
PATA 131734Z 1318/1418 08010KT P6SM BKN025 OVC140
     FM132000 08006KT P6SM SCT025 BKN100
     FM140400 08006KT P6SM FEW025 BKN050 BKN100
     FM141600 06006KT P6SM FEW050 SCT100=

USA.gov is the U.S. government's official web portal to all federal, state and local government web resources and services.